sensor_id;sensor_type;location;lat;lon;timestamp;pressure;altitude;pressure_sealevel;temperature;humidity
9893;BME280;4985;49.092;8.542;2023-05-19T00:01:09;99884.81;;;20.30;51.22
9893;BME280;4985;49.092;8.542;2023-05-19T00:03:49;99874.53;;;20.27;51.20
9893;BME280;4985;49.092;8.542;2023-05-19T00:06:21;99879.69;;;20.29;51.22
9893;BME280;4985;49.092;8.542;2023-05-19T00:08:49;99883.16;;;20.29;51.20
9893;BME280;4985;49.092;8.542;2023-05-19T00:11:21;99873.50;;;20.28;51.22
9893;BME280;4985;49.092;8.542;2023-05-19T00:13:48;99878.84;;;20.28;51.22
9893;BME280;4985;49.092;8.542;2023-05-19T00:16:15;99882.56;;;20.27;51.24
9893;BME280;4985;49.092;8.542;2023-05-19T00:18:42;99878.84;;;20.28;51.25
9893;BME280;4985;49.092;8.542;2023-05-19T00:21:10;99868.16;;;20.28;51.25
9893;BME280;4985;49.092;8.542;2023-05-19T00:23:36;99870.19;;;20.26;51.23
9893;BME280;4985;49.092;8.542;2023-05-19T00:26:03;99871.03;;;20.27;51.24
9893;BME280;4985;49.092;8.542;2023-05-19T00:28:29;99874.53;;;20.27;51.23
9893;BME280;4985;49.092;8.542;2023-05-19T00:30:56;99874.72;;;20.26;51.20
9893;BME280;4985;49.092;8.542;2023-05-19T00:33:23;99867.53;;;20.26;51.22
9893;BME280;4985;49.092;8.542;2023-05-19T00:35:49;99872.06;;;20.26;51.21
9893;BME280;4985;49.092;8.542;2023-05-19T00:38:17;99880.06;;;20.26;51.22
9893;BME280;4985;49.092;8.542;2023-05-19T00:40:44;99880.06;;;20.26;51.22
9893;BME280;4985;49.092;8.542;2023-05-19T00:43:11;99873.91;;;20.25;51.23
9893;BME280;4985;49.092;8.542;2023-05-19T00:45:37;99881.13;;;20.25;51.25
9893;BME280;4985;49.092;8.542;2023-05-19T00:48:04;99872.28;;;20.24;51.24
9893;BME280;4985;49.092;8.542;2023-05-19T00:50:30;99877.63;;;20.24;51.25
9893;BME280;4985;49.092;8.542;2023-05-19T00:52:57;99873.31;;;20.23;51.24
9893;BME280;4985;49.092;8.542;2023-05-19T00:55:27;99865.28;;;20.23;51.25
9893;BME280;4985;49.092;8.542;2023-05-19T00:57:55;99862.63;;;20.23;51.23
9893;BME280;4985;49.092;8.542;2023-05-19T01:00:22;99864.47;;;20.23;51.23
9893;BME280;4985;49.092;8.542;2023-05-19T01:02:49;99859.13;;;20.23;51.20
9893;BME280;4985;49.092;8.542;2023-05-19T01:05:16;99859.13;;;20.23;51.17
9893;BME280;4985;49.092;8.542;2023-05-19T01:07:42;99858.31;;;20.22;51.17
9893;BME280;4985;49.092;8.542;2023-05-19T01:10:11;99857.47;;;20.22;51.16
9893;BME280;4985;49.092;8.542;2023-05-19T01:12:39;99864.47;;;20.23;51.16
9893;BME280;4985;49.092;8.542;2023-05-19T01:15:06;99857.47;;;20.22;51.15
9893;BME280;4985;49.092;8.542;2023-05-19T01:17:36;99859.13;;;20.23;51.16
9893;BME280;4985;49.092;8.542;2023-05-19T01:20:13;99859.94;;;20.23;51.14
9893;BME280;4985;49.092;8.542;2023-05-19T01:23:05;99856.44;;;20.23;51.13
9893;BME280;4985;49.092;8.542;2023-05-19T01:29:09;99855.63;;;20.22;51.15
9893;BME280;4985;49.092;8.542;2023-05-19T01:31:41;99854.81;;;20.22;51.08
9893;BME280;4985;49.092;8.542;2023-05-19T01:34:10;99845.97;;;20.21;51.08
9893;BME280;4985;49.092;8.542;2023-05-19T01:36:37;99851.31;;;20.21;51.07
9893;BME280;4985;49.092;8.542;2023-05-19T01:39:09;99841.44;;;20.22;51.07
9893;BME280;4985;49.092;8.542;2023-05-19T01:41:37;99840.63;;;20.21;51.06
9893;BME280;4985;49.092;8.542;2023-05-19T01:44:03;99849.69;;;20.20;51.07
9893;BME280;4985;49.092;8.542;2023-05-19T01:46:30;99851.31;;;20.21;51.05
9893;BME280;4985;49.092;8.542;2023-05-19T01:48:58;99840.63;;;20.21;51.07
9893;BME280;4985;49.092;8.542;2023-05-19T01:51:26;99845.16;;;20.21;51.06
9893;BME280;4985;49.092;8.542;2023-05-19T01:53:53;99849.69;;;20.20;51.08
9893;BME280;4985;49.092;8.542;2023-05-19T01:56:28;99841.66;;;20.20;51.03
9893;BME280;4985;49.092;8.542;2023-05-19T01:59:03;99848.03;;;20.19;51.04
9893;BME280;4985;49.092;8.542;2023-05-19T02:01:40;99852.56;;;20.19;51.05
9893;BME280;4985;49.092;8.542;2023-05-19T02:04:18;99848.03;;;20.19;51.05
9893;BME280;4985;49.092;8.542;2023-05-19T02:06:53;99846.41;;;20.18;51.05
9893;BME280;4985;49.092;8.542;2023-05-19T02:09:25;99854.44;;;20.18;51.05
9893;BME280;4985;49.092;8.542;2023-05-19T02:12:02;99855.47;;;20.17;51.02
9893;BME280;4985;49.092;8.542;2023-05-19T02:14:32;99856.28;;;20.18;51.05
9893;BME280;4985;49.092;8.542;2023-05-19T02:16:59;99860.81;;;20.17;51.05
9893;BME280;4985;49.092;8.542;2023-05-19T02:19:29;99852.97;;;20.16;51.03
9893;BME280;4985;49.092;8.542;2023-05-19T02:21:56;99859.16;;;20.16;51.02
9893;BME280;4985;49.092;8.542;2023-05-19T02:24:23;99858.31;;;20.16;51.05
9893;BME280;4985;49.092;8.542;2023-05-19T02:26:50;99853.81;;;20.16;51.04
9893;BME280;4985;49.092;8.542;2023-05-19T02:29:17;99858.31;;;20.16;51.05
9893;BME280;4985;49.092;8.542;2023-05-19T02:31:43;99853.81;;;20.16;51.04
9893;BME280;4985;49.092;8.542;2023-05-19T02:34:10;99861.84;;;20.16;51.04
9893;BME280;4985;49.092;8.542;2023-05-19T02:36:39;99857.50;;;20.15;51.05
9893;BME280;4985;49.092;8.542;2023-05-19T02:39:07;99851.34;;;20.15;51.04
9893;BME280;4985;49.092;8.542;2023-05-19T02:41:33;99860.38;;;20.14;51.01
9893;BME280;4985;49.092;8.542;2023-05-19T02:44:00;99855.03;;;20.14;51.03
9893;BME280;4985;49.092;8.542;2023-05-19T02:46:26;99861.22;;;20.14;51.03
9893;BME280;4985;49.092;8.542;2023-05-19T02:48:53;99848.87;;;20.13;51.04
9893;BME280;4985;49.092;8.542;2023-05-19T02:51:20;99854.22;;;20.13;51.03
9893;BME280;4985;49.092;8.542;2023-05-19T02:53:48;99843.97;;;20.10;51.09
9893;BME280;4985;49.092;8.542;2023-05-19T02:56:15;99850.94;;;20.11;51.07
9893;BME280;4985;49.092;8.542;2023-05-19T02:58:41;99851.75;;;20.12;51.06
9893;BME280;4985;49.092;8.542;2023-05-19T03:01:08;99850.94;;;20.11;51.05
9893;BME280;4985;49.092;8.542;2023-05-19T03:03:35;99848.50;;;20.10;51.08
9893;BME280;4985;49.092;8.542;2023-05-19T03:06:02;99847.44;;;20.11;51.06
9893;BME280;4985;49.092;8.542;2023-05-19T03:08:29;99846.63;;;20.10;51.08
9893;BME280;4985;49.092;8.542;2023-05-19T03:10:56;99843.97;;;20.10;51.07
9893;BME280;4985;49.092;8.542;2023-05-19T03:13:23;99843.13;;;20.10;51.11
9893;BME280;4985;49.092;8.542;2023-05-19T03:15:50;99847.66;;;20.09;51.10
9893;BME280;4985;49.092;8.542;2023-05-19T03:18:16;99843.34;;;20.08;51.13
9893;BME280;4985;49.092;8.542;2023-05-19T03:20:43;99832.66;;;20.08;51.13
9893;BME280;4985;49.092;8.542;2023-05-19T03:23:10;99830.81;;;20.09;51.15
9893;BME280;4985;49.092;8.542;2023-05-19T03:25:36;99832.25;;;20.04;51.15
9893;BME280;4985;49.092;8.542;2023-05-19T03:28:04;99844.38;;;20.07;51.13
9893;BME280;4985;49.092;8.542;2023-05-19T03:30:31;99840.91;;;20.06;51.11
9893;BME280;4985;49.092;8.542;2023-05-19T03:32:57;99832.06;;;20.06;51.13
9893;BME280;4985;49.092;8.542;2023-05-19T03:35:25;99838.22;;;20.06;51.16
9893;BME280;4985;49.092;8.542;2023-05-19T03:37:52;99835.78;;;20.05;51.17
9893;BME280;4985;49.092;8.542;2023-05-19T03:40:19;99836.59;;;20.05;51.18
9893;BME280;4985;49.092;8.542;2023-05-19T03:42:45;99843.78;;;20.05;51.21
9893;BME280;4985;49.092;8.542;2023-05-19T03:45:13;99844.78;;;20.04;51.21
9893;BME280;4985;49.092;8.542;2023-05-19T03:47:40;99843.16;;;20.03;51.17
9893;BME280;4985;49.092;8.542;2023-05-19T03:50:07;99840.47;;;20.03;51.20
9893;BME280;4985;49.092;8.542;2023-05-19T03:52:34;99845.81;;;20.03;51.21
9893;BME280;4985;49.092;8.542;2023-05-19T03:55:00;99845.00;;;20.02;51.22
9893;BME280;4985;49.092;8.542;2023-05-19T03:57:27;99840.69;;;20.01;51.20
9893;BME280;4985;49.092;8.542;2023-05-19T03:59:54;99852.19;;;20.02;51.22
9893;BME280;4985;49.092;8.542;2023-05-19T04:02:22;99850.56;;;20.01;51.22
9893;BME280;4985;49.092;8.542;2023-05-19T04:04:48;99847.87;;;20.01;51.23
9893;BME280;4985;49.092;8.542;2023-05-19T04:07:15;99850.56;;;20.01;51.24
9893;BME280;4985;49.092;8.542;2023-05-19T04:09:42;99850.78;;;19.99;51.26
9893;BME280;4985;49.092;8.542;2023-05-19T04:12:09;99856.94;;;20.00;51.22
9893;BME280;4985;49.092;8.542;2023-05-19T04:14:35;99863.31;;;19.99;51.26
9893;BME280;4985;49.092;8.542;2023-05-19T04:17:02;99852.84;;;19.97;51.26
9893;BME280;4985;49.092;8.542;2023-05-19T04:19:31;99862.50;;;19.98;51.30
9893;BME280;4985;49.092;8.542;2023-05-19T04:21:57;99862.50;;;19.98;51.28
9893;BME280;4985;49.092;8.542;2023-05-19T04:24:24;99861.91;;;19.96;51.29
9893;BME280;4985;49.092;8.542;2023-05-19T04:26:50;99858.41;;;19.96;51.31
9893;BME280;4985;49.092;8.542;2023-05-19T04:29:17;99863.75;;;19.96;51.30
9893;BME280;4985;49.092;8.542;2023-05-19T04:31:44;99858.41;;;19.96;51.29
9893;BME280;4985;49.092;8.542;2023-05-19T04:34:11;99852.25;;;19.95;51.30
9893;BME280;4985;49.092;8.542;2023-05-19T04:36:39;99859.44;;;19.95;51.30
9893;BME280;4985;49.092;8.542;2023-05-19T04:39:05;99860.47;;;19.94;51.30
9893;BME280;4985;49.092;8.542;2023-05-19T04:41:34;99860.47;;;19.94;51.30
9893;BME280;4985;49.092;8.542;2023-05-19T04:44:04;99854.31;;;19.93;51.30
9893;BME280;4985;49.092;8.542;2023-05-19T04:46:31;99865.00;;;19.93;51.31
9893;BME280;4985;49.092;8.542;2023-05-19T04:48:58;99865.81;;;19.94;51.32
9893;BME280;4985;49.092;8.542;2023-05-19T04:51:25;99859.03;;;19.91;51.34
9893;BME280;4985;49.092;8.542;2023-05-19T04:53:53;99867.84;;;19.92;51.34
9893;BME280;4985;49.092;8.542;2023-05-19T04:56:20;99872.37;;;19.91;51.35
9893;BME280;4985;49.092;8.542;2023-05-19T04:58:47;99874.22;;;19.91;51.37
9893;BME280;4985;49.092;8.542;2023-05-19T05:01:13;99871.56;;;19.91;51.36
9893;BME280;4985;49.092;8.542;2023-05-19T05:03:40;99872.59;;;19.90;51.37
9893;BME280;4985;49.092;8.542;2023-05-19T05:06:07;99863.75;;;19.89;51.36
9893;BME280;4985;49.092;8.542;2023-05-19T05:08:34;99868.28;;;19.89;51.39
9893;BME280;4985;49.092;8.542;2023-05-19T05:11:06;99868.50;;;19.87;51.39
9893;BME280;4985;49.092;8.542;2023-05-19T05:13:33;99871.97;;;19.88;51.40
9893;BME280;4985;49.092;8.542;2023-05-19T05:16:00;99869.53;;;19.86;51.40
9893;BME280;4985;49.092;8.542;2023-05-19T05:18:29;99870.34;;;19.87;51.41
9893;BME280;4985;49.092;8.542;2023-05-19T05:20:56;99867.88;;;19.85;51.42
9893;BME280;4985;49.092;8.542;2023-05-19T05:23:23;99872.41;;;19.85;51.42
9893;BME280;4985;49.092;8.542;2023-05-19T05:25:50;99870.78;;;19.84;51.42
9893;BME280;4985;49.092;8.542;2023-05-19T05:28:18;99874.25;;;19.84;51.44
9893;BME280;4985;49.092;8.542;2023-05-19T05:30:45;99869.94;;;19.83;51.45
9893;BME280;4985;49.092;8.542;2023-05-19T05:33:13;99867.28;;;19.83;51.45
9893;BME280;4985;49.092;8.542;2023-05-19T05:35:40;99872.63;;;19.83;51.46
9893;BME280;4985;49.092;8.542;2023-05-19T05:38:06;99869.13;;;19.83;51.46
9893;BME280;4985;49.092;8.542;2023-05-19T05:40:35;99863.78;;;19.83;51.48
9893;BME280;4985;49.092;8.542;2023-05-19T05:43:02;99869.31;;;19.81;51.49
9893;BME280;4985;49.092;8.542;2023-05-19T05:45:30;99865.81;;;19.81;51.50
9893;BME280;4985;49.092;8.542;2023-05-19T05:47:57;99867.66;;;19.80;51.51
9893;BME280;4985;49.092;8.542;2023-05-19T05:50:24;99870.34;;;19.80;51.50
9893;BME280;4985;49.092;8.542;2023-05-19T05:52:52;99863.37;;;19.79;51.50
9893;BME280;4985;49.092;8.542;2023-05-19T05:55:19;99858.84;;;19.80;51.52
9893;BME280;4985;49.092;8.542;2023-05-19T05:57:47;99867.06;;;19.78;51.53
9893;BME280;4985;49.092;8.542;2023-05-19T06:00:15;99861.72;;;19.78;51.53
9893;BME280;4985;49.092;8.542;2023-05-19T06:02:44;99860.09;;;19.77;51.53
9893;BME280;4985;49.092;8.542;2023-05-19T06:05:11;99866.25;;;19.77;51.53
9893;BME280;4985;49.092;8.542;2023-05-19T06:07:38;99853.94;;;19.76;51.52
9893;BME280;4985;49.092;8.542;2023-05-19T06:10:06;99862.75;;;19.77;51.52
9893;BME280;4985;49.092;8.542;2023-05-19T06:12:33;99857.41;;;19.77;51.52
9893;BME280;4985;49.092;8.542;2023-05-19T06:15:01;99859.28;;;19.76;51.50
9893;BME280;4985;49.092;8.542;2023-05-19T06:17:27;99858.44;;;19.76;51.52
9893;BME280;4985;49.092;8.542;2023-05-19T06:19:55;99862.16;;;19.75;51.52
9893;BME280;4985;49.092;8.542;2023-05-19T06:22:21;99865.63;;;19.75;51.53
9893;BME280;4985;49.092;8.542;2023-05-19T06:24:48;99859.47;;;19.75;51.54
9893;BME280;4985;49.092;8.542;2023-05-19T06:27:15;99857.63;;;19.75;51.55
9893;BME280;4985;49.092;8.542;2023-05-19T06:29:41;99850.66;;;19.74;51.54
9893;BME280;4985;49.092;8.542;2023-05-19T06:32:08;99853.31;;;19.74;51.55
9893;BME280;4985;49.092;8.542;2023-05-19T06:34:34;99857.03;;;19.73;51.58
9893;BME280;4985;49.092;8.542;2023-05-19T06:37:03;99855.38;;;19.72;51.60
9893;BME280;4985;49.092;8.542;2023-05-19T06:39:30;99859.69;;;19.73;51.60
9893;BME280;4985;49.092;8.542;2023-05-19T06:41:57;99857.22;;;19.72;51.60
9893;BME280;4985;49.092;8.542;2023-05-19T06:44:24;99861.75;;;19.71;51.60
9893;BME280;4985;49.092;8.542;2023-05-19T06:46:50;99855.59;;;19.71;51.61
9893;BME280;4985;49.092;8.542;2023-05-19T06:49:17;99853.09;;;19.69;51.64
9893;BME280;4985;49.092;8.542;2023-05-19T06:51:43;99850.44;;;19.69;51.64
9893;BME280;4985;49.092;8.542;2023-05-19T06:54:11;99858.44;;;19.69;51.66
9893;BME280;4985;49.092;8.542;2023-05-19T06:56:40;99859.28;;;19.70;51.66
9893;BME280;4985;49.092;8.542;2023-05-19T06:59:06;99858.44;;;19.69;51.68
9893;BME280;4985;49.092;8.542;2023-05-19T07:01:33;99862.16;;;19.68;51.69
9893;BME280;4985;49.092;8.542;2023-05-19T07:03:59;99864.00;;;19.68;51.70
9893;BME280;4985;49.092;8.542;2023-05-19T07:06:26;99855.16;;;19.67;51.72
9893;BME280;4985;49.092;8.542;2023-05-19T07:08:52;99860.50;;;19.67;51.72
9893;BME280;4985;49.092;8.542;2023-05-19T07:11:21;99860.50;;;19.67;51.73
9893;BME280;4985;49.092;8.542;2023-05-19T07:13:47;99856.81;;;19.68;51.73
9893;BME280;4985;49.092;8.542;2023-05-19T07:16:14;99863.78;;;19.69;51.71
9893;BME280;4985;49.092;8.542;2023-05-19T07:18:40;99858.28;;;19.71;51.67
9893;BME280;4985;49.092;8.542;2023-05-19T07:21:07;99858.06;;;19.72;51.65
9893;BME280;4985;49.092;8.542;2023-05-19T07:23:33;99857.22;;;19.72;51.62
9893;BME280;4985;49.092;8.542;2023-05-19T07:26:00;99857.22;;;19.72;51.60
9893;BME280;4985;49.092;8.542;2023-05-19T07:28:28;99851.25;;;19.70;51.60
9893;BME280;4985;49.092;8.542;2023-05-19T07:30:54;99853.53;;;19.73;51.61
9893;BME280;4985;49.092;8.542;2023-05-19T07:33:21;99857.03;;;19.73;51.63
9893;BME280;4985;49.092;8.542;2023-05-19T07:35:47;99851.88;;;19.72;51.64
9893;BME280;4985;49.092;8.542;2023-05-19T07:38:14;99840.37;;;19.71;51.66
9893;BME280;4985;49.092;8.542;2023-05-19T07:40:40;99839.56;;;19.71;51.67
9893;BME280;4985;49.092;8.542;2023-05-19T07:43:07;99848.59;;;19.70;51.68
9893;BME280;4985;49.092;8.542;2023-05-19T07:45:36;99838.72;;;19.70;51.71
9893;BME280;4985;49.092;8.542;2023-05-19T07:48:03;99837.06;;;19.69;51.71
9893;BME280;4985;49.092;8.542;2023-05-19T07:50:31;99841.37;;;19.70;51.72
9893;BME280;4985;49.092;8.542;2023-05-19T07:52:57;99833.37;;;19.70;51.73
9893;BME280;4985;49.092;8.542;2023-05-19T07:55:25;99829.69;;;19.71;51.72
9893;BME280;4985;49.092;8.542;2023-05-19T07:57:52;99829.69;;;19.71;51.70
9893;BME280;4985;49.092;8.542;2023-05-19T08:00:18;99830.53;;;19.72;51.71
9893;BME280;4985;49.092;8.542;2023-05-19T08:02:46;99827.22;;;19.70;51.72
9893;BME280;4985;49.092;8.542;2023-05-19T08:05:13;99826.22;;;19.71;51.75
9893;BME280;4985;49.092;8.542;2023-05-19T08:07:39;99825.37;;;19.70;51.76
9893;BME280;4985;49.092;8.542;2023-05-19T08:10:07;99828.88;;;19.71;51.77
9893;BME280;4985;49.092;8.542;2023-05-19T08:12:33;99822.50;;;19.72;51.77
9893;BME280;4985;49.092;8.542;2023-05-19T08:15:00;99835.88;;;19.72;51.77
9893;BME280;4985;49.092;8.542;2023-05-19T08:17:26;99829.69;;;19.71;51.78
9893;BME280;4985;49.092;8.542;2023-05-19T08:19:54;99823.53;;;19.71;51.80
9893;BME280;4985;49.092;8.542;2023-05-19T08:22:21;99826.00;;;19.72;51.81
9893;BME280;4985;49.092;8.542;2023-05-19T08:24:47;99832.97;;;19.73;51.80
9893;BME280;4985;49.092;8.542;2023-05-19T08:27:16;99822.28;;;19.73;51.80
9893;BME280;4985;49.092;8.542;2023-05-19T08:29:42;99816.13;;;19.73;51.82
9893;BME280;4985;49.092;8.542;2023-05-19T08:32:09;99818.59;;;19.74;51.81
9893;BME280;4985;49.092;8.542;2023-05-19T08:34:35;99810.56;;;19.74;51.81
9893;BME280;4985;49.092;8.542;2023-05-19T08:37:03;99811.41;;;19.75;51.81
9893;BME280;4985;49.092;8.542;2023-05-19T08:39:31;99809.53;;;19.75;51.81
9893;BME280;4985;49.092;8.542;2023-05-19T08:41:58;99809.53;;;19.75;51.82
9893;BME280;4985;49.092;8.542;2023-05-19T08:44:25;99812.22;;;19.75;51.85
9893;BME280;4985;49.092;8.542;2023-05-19T08:46:53;99798.84;;;19.75;51.85
9893;BME280;4985;49.092;8.542;2023-05-19T08:49:23;99799.47;;;19.77;51.86
9893;BME280;4985;49.092;8.542;2023-05-19T08:51:57;99805.41;;;19.80;51.83
9893;BME280;4985;49.092;8.542;2023-05-19T08:54:32;99802.75;;;19.80;51.82
9893;BME280;4985;49.092;8.542;2023-05-19T08:57:05;99810.75;;;19.80;51.82
9893;BME280;4985;49.092;8.542;2023-05-19T08:59:32;99809.13;;;19.78;51.84
9893;BME280;4985;49.092;8.542;2023-05-19T09:02:00;99808.09;;;19.80;51.84
9893;BME280;4985;49.092;8.542;2023-05-19T09:04:27;99811.78;;;19.78;51.85
9893;BME280;4985;49.092;8.542;2023-05-19T09:06:54;99814.47;;;19.78;51.86
9893;BME280;4985;49.092;8.542;2023-05-19T09:09:23;99810.16;;;19.77;51.89
9893;BME280;4985;49.092;8.542;2023-05-19T09:11:51;99803.16;;;19.76;51.90
9893;BME280;4985;49.092;8.542;2023-05-19T09:14:18;99801.31;;;19.77;51.94
9893;BME280;4985;49.092;8.542;2023-05-19T09:16:45;99804.81;;;19.77;51.96
9893;BME280;4985;49.092;8.542;2023-05-19T09:19:15;99800.50;;;19.76;51.97
9893;BME280;4985;49.092;8.542;2023-05-19T09:21:41;99796.78;;;19.77;51.97
9893;BME280;4985;49.092;8.542;2023-05-19T09:24:10;99797.59;;;19.78;51.98
9893;BME280;4985;49.092;8.542;2023-05-19T09:26:36;99793.09;;;19.78;51.98
9893;BME280;4985;49.092;8.542;2023-05-19T09:29:15;99800.06;;;19.80;51.99
9893;BME280;4985;49.092;8.542;2023-05-19T09:31:48;99797.41;;;19.80;51.98
9893;BME280;4985;49.092;8.542;2023-05-19T09:34:15;99799.25;;;19.79;52.00
9893;BME280;4985;49.092;8.542;2023-05-19T09:36:42;99792.88;;;19.80;52.00
9893;BME280;4985;49.092;8.542;2023-05-19T09:39:12;99794.72;;;19.80;52.04
9893;BME280;4985;49.092;8.542;2023-05-19T09:41:39;99787.75;;;19.78;52.04
9893;BME280;4985;49.092;8.542;2023-05-19T09:44:06;99784.03;;;19.80;52.06
9893;BME280;4985;49.092;8.542;2023-05-19T09:46:34;99787.75;;;19.78;52.07
9893;BME280;4985;49.092;8.542;2023-05-19T09:49:07;99791.03;;;19.81;52.08
9893;BME280;4985;49.092;8.542;2023-05-19T09:51:34;99792.06;;;19.80;52.10
9893;BME280;4985;49.092;8.542;2023-05-19T09:54:01;99790.19;;;19.80;52.11
9893;BME280;4985;49.092;8.542;2023-05-19T09:56:30;99793.69;;;19.81;52.13
9893;BME280;4985;49.092;8.542;2023-05-19T09:59:00;99791.03;;;19.81;52.14
9893;BME280;4985;49.092;8.542;2023-05-19T10:01:27;99781.97;;;19.82;52.15
9893;BME280;4985;49.092;8.542;2023-05-19T10:03:56;99773.78;;;19.83;52.15
9893;BME280;4985;49.092;8.542;2023-05-19T10:06:23;99773.97;;;19.82;52.12
9893;BME280;4985;49.092;8.542;2023-05-19T10:08:51;99778.91;;;19.85;52.12
9893;BME280;4985;49.092;8.542;2023-05-19T10:11:19;99778.69;;;19.86;52.15
9893;BME280;4985;49.092;8.542;2023-05-19T10:13:49;99775.81;;;19.88;52.13
9893;BME280;4985;49.092;8.542;2023-05-19T10:16:17;99778.47;;;19.88;52.12
9893;BME280;4985;49.092;8.542;2023-05-19T10:18:43;99772.69;;;19.91;52.11
9893;BME280;4985;49.092;8.542;2023-05-19T10:21:12;99771.66;;;19.92;52.09
9893;BME280;4985;49.092;8.542;2023-05-19T10:23:39;99767.56;;;19.89;52.09
9893;BME280;4985;49.092;8.542;2023-05-19T10:26:07;99776.19;;;19.91;52.11
9893;BME280;4985;49.092;8.542;2023-05-19T10:28:37;99777.00;;;19.92;52.13
9893;BME280;4985;49.092;8.542;2023-05-19T10:31:08;99773.50;;;19.91;52.17
9893;BME280;4985;49.092;8.542;2023-05-19T10:33:46;99770.84;;;19.91;52.18
9893;BME280;4985;49.092;8.542;2023-05-19T10:36:38;99777.00;;;19.92;52.19
9893;BME280;4985;49.092;8.542;2023-05-19T10:39:12;99778.63;;;19.93;52.19
9893;BME280;4985;49.092;8.542;2023-05-19T10:41:46;99779.50;;;19.93;52.18
9893;BME280;4985;49.092;8.542;2023-05-19T10:44:31;99770.63;;;19.93;52.21
9893;BME280;4985;49.092;8.542;2023-05-19T10:46:59;99768.81;;;19.93;52.21
9893;BME280;4985;49.092;8.542;2023-05-19T10:49:25;99765.09;;;19.94;52.21
9893;BME280;4985;49.092;8.542;2023-05-19T10:51:55;99773.94;;;19.95;52.21
9893;BME280;4985;49.092;8.542;2023-05-19T10:54:41;99769.62;;;19.94;52.22
9893;BME280;4985;49.092;8.542;2023-05-19T10:57:13;99765.91;;;19.95;52.21
9893;BME280;4985;49.092;8.542;2023-05-19T10:59:39;99756.87;;;19.96;52.22
9893;BME280;4985;49.092;8.542;2023-05-19T11:02:09;99757.69;;;19.96;52.21
9893;BME280;4985;49.092;8.542;2023-05-19T11:04:39;99764.66;;;19.97;52.22
9893;BME280;4985;49.092;8.542;2023-05-19T11:07:16;99767.34;;;19.97;52.23
9893;BME280;4985;49.092;8.542;2023-05-19T11:09:48;99768.16;;;19.98;52.25
9893;BME280;4985;49.092;8.542;2023-05-19T11:12:18;99766.31;;;19.98;52.25
9893;BME280;4985;49.092;8.542;2023-05-19T11:14:46;99763.84;;;19.97;52.23
9893;BME280;4985;49.092;8.542;2023-05-19T11:17:14;99765.47;;;19.98;52.24
9893;BME280;4985;49.092;8.542;2023-05-19T11:19:51;99763.41;;;20.00;52.25
9893;BME280;4985;49.092;8.542;2023-05-19T11:22:23;99750.06;;;20.00;52.26
9893;BME280;4985;49.092;8.542;2023-05-19T11:24:51;99749.00;;;20.01;52.25
9893;BME280;4985;49.092;8.542;2023-05-19T11:27:21;99747.97;;;20.02;52.25
9893;BME280;4985;49.092;8.542;2023-05-19T11:29:49;99746.12;;;20.02;52.25
9893;BME280;4985;49.092;8.542;2023-05-19T11:32:17;99746.12;;;20.02;52.25
9893;BME280;4985;49.092;8.542;2023-05-19T11:34:46;99747.97;;;20.02;52.27
9893;BME280;4985;49.092;8.542;2023-05-19T11:37:13;99754.16;;;20.02;52.27
9893;BME280;4985;49.092;8.542;2023-05-19T11:39:41;99745.09;;;20.03;52.27
9893;BME280;4985;49.092;8.542;2023-05-19T11:42:09;99739.56;;;20.05;52.26
9893;BME280;4985;49.092;8.542;2023-05-19T11:44:36;99739.56;;;20.05;52.25
9893;BME280;4985;49.092;8.542;2023-05-19T11:47:03;99740.38;;;20.05;52.24
9893;BME280;4985;49.092;8.542;2023-05-19T11:49:30;99747.34;;;20.06;52.22
9893;BME280;4985;49.092;8.542;2023-05-19T11:51:59;99749.81;;;20.08;52.20
9893;BME280;4985;49.092;8.542;2023-05-19T11:54:29;99748.78;;;20.09;52.15
9893;BME280;4985;49.092;8.542;2023-05-19T11:56:59;99748.56;;;20.11;52.10
9893;BME280;4985;49.092;8.542;2023-05-19T11:59:30;99747.75;;;20.10;52.08
9893;BME280;4985;49.092;8.542;2023-05-19T12:02:00;99748.56;;;20.11;52.07
9893;BME280;4985;49.092;8.542;2023-05-19T12:04:27;99747.75;;;20.10;52.07
9893;BME280;4985;49.092;8.542;2023-05-19T12:06:54;99753.09;;;20.10;52.09
9893;BME280;4985;49.092;8.542;2023-05-19T12:09:21;99755.75;;;20.10;52.08
9893;BME280;4985;49.092;8.542;2023-05-19T12:11:50;99746.91;;;20.10;52.07
9893;BME280;4985;49.092;8.542;2023-05-19T12:14:18;99750.41;;;20.10;52.05
9893;BME280;4985;49.092;8.542;2023-05-19T12:16:44;99745.88;;;20.11;52.04
9893;BME280;4985;49.092;8.542;2023-05-19T12:19:11;99751.22;;;20.11;52.03
9893;BME280;4985;49.092;8.542;2023-05-19T12:21:38;99748.56;;;20.11;52.02
9893;BME280;4985;49.092;8.542;2023-05-19T12:24:05;99754.72;;;20.11;52.02
9893;BME280;4985;49.092;8.542;2023-05-19T12:26:34;99753.69;;;20.12;52.01
9893;BME280;4985;49.092;8.542;2023-05-19T12:29:00;99754.72;;;20.11;52.00
9893;BME280;4985;49.092;8.542;2023-05-19T12:31:28;99750.19;;;20.12;52.01
9893;BME280;4985;49.092;8.542;2023-05-19T12:33:55;99753.69;;;20.12;52.02
9893;BME280;4985;49.092;8.542;2023-05-19T12:36:22;99751.00;;;20.12;52.02
9893;BME280;4985;49.092;8.542;2023-05-19T12:38:53;99759.84;;;20.13;52.04
9893;BME280;4985;49.092;8.542;2023-05-19T12:41:19;99757.19;;;20.13;52.04
9893;BME280;4985;49.092;8.542;2023-05-19T12:43:47;99753.47;;;20.14;52.02
9893;BME280;4985;49.092;8.542;2023-05-19T12:46:14;99754.28;;;20.14;52.01
9893;BME280;4985;49.092;8.542;2023-05-19T12:48:43;99752.66;;;20.13;52.02
9893;BME280;4985;49.092;8.542;2023-05-19T12:51:15;99761.28;;;20.15;52.00
9893;BME280;4985;49.092;8.542;2023-05-19T12:53:41;99756.75;;;20.16;51.99
9893;BME280;4985;49.092;8.542;2023-05-19T12:56:11;99750.56;;;20.15;51.99
9893;BME280;4985;49.092;8.542;2023-05-19T12:58:39;99750.56;;;20.15;51.99
9893;BME280;4985;49.092;8.542;2023-05-19T13:01:06;99753.25;;;20.15;51.99
9893;BME280;4985;49.092;8.542;2023-05-19T13:03:38;99748.94;;;20.14;51.99
9893;BME280;4985;49.092;8.542;2023-05-19T13:06:07;99746.06;;;20.16;52.00
9893;BME280;4985;49.092;8.542;2023-05-19T13:08:34;99752.44;;;20.15;51.99
9893;BME280;4985;49.092;8.542;2023-05-19T13:11:01;99752.25;;;20.16;52.00
9893;BME280;4985;49.092;8.542;2023-05-19T13:13:27;99747.91;;;20.15;51.99
9893;BME280;4985;49.092;8.542;2023-05-19T13:15:54;99754.91;;;20.16;51.98
9893;BME280;4985;49.092;8.542;2023-05-19T13:18:20;99746.06;;;20.16;51.98
9893;BME280;4985;49.092;8.542;2023-05-19T13:20:47;99752.25;;;20.16;51.98
9893;BME280;4985;49.092;8.542;2023-05-19T13:23:15;99737.03;;;20.17;51.99
9893;BME280;4985;49.092;8.542;2023-05-19T13:25:42;99739.47;;;20.18;51.98
9893;BME280;4985;49.092;8.542;2023-05-19T13:28:09;99738.66;;;20.18;51.98
9893;BME280;4985;49.092;8.542;2023-05-19T13:30:37;99739.47;;;20.18;51.96